ドーハ の空港の天気 - METARとTAF

ドーハ国際空港 ( OTBD / DOH ) - カタール ドーハ
飛行場実況気象(Metar)
観測時間07/16 09:00 AST (07/16 06:00 UTC)
風向・風速北西 5m/s
視程10km以上
天気現象
なし
気温43℃
湿度16%
気圧995hPa
METAROTBD 160600Z 31009KT 260V340 CAVOK 43/12 Q0995 NOSIG
過去の天気等 Google飛行場航空写真 Wunderground天気予報

過去48時間のMETAR

飛行場予報(TAF)
発表時間: 7/16 08:03 AST (7/16 05:03 UTC)
予報対象時間: 16日9時 AST ~ 17日15時 AST
風向・風速北北西 7m/s
視程8000m
なし
16日11時 AST ~ 16日15時 AST に 確率 40% で一時的に
風向・風速北北東 6m/s
16日21時 AST ~ 16日23時 AST に徐々に
風向・風速西 4m/s
17日8時 AST ~ 17日10時 AST に徐々に
風向・風速北 6m/s
TAF OTBD 160503Z 1606/1712 33014KT 8000 NSC
PROB40 TEMPO 1608/1612 02012KT
BECMG 1618/1620 27008KT
BECMG 1705/1707 35012KT